Southeastern Grand Banks: Past 24 Hour Conditions

 

Blanc-Sablon Airport

08:00 AM AST 13 February 2016
Disclaimer

This table is a summary of hourly weather conditions for the past 24 hours.
Please note that these observations might not always be representative of weather conditions over their associated marine area.

Date / Time
(AST)
Wind(knots) Conditions Visibility(km) Pressure(kPa) Air tempC) Relative humidity(%) Dew pointC) Wind Chill
13 February 2016
8:00 W 7 Sunny 24 101.1 -17 75 -20 -25
7:00 W 8 Mainly Clear 24 101.0 -17 77 -20 -26
6:00 W 13 Mainly Clear 24 100.9 -16 77 -19 -26
5:00 WSW 15 Light Snow 24 100.8 -14 73 -18 -25
4:00 WSW 16 gust 23 Light Snow 16 100.7 -13 76 -16 -23
3:00 WSW 16 gust 21 Light Snow 16 100.6 -11 78 -14 -21
2:00 W 13 Light Snow 16 100.5 -11 79 -14 -19
1:00 WSW 18 gust 25 Light Snow 16 100.4 -10 81 -13 -20
0:00 SW 16 gust 21 Light Snow 16 100.4 -10 83 -13 -20
12 February 2016
23:00 SW 19 gust 24 Light Snow 16 100.4 -10 86 -12 -20
22:00 SW 16 gust 22 Light Snow 16 100.3 -9 82 -12 -19
21:00 SW 15 gust 22 Light Snow 16 100.3 -9 80 -12 -18
20:00 WSW 12 gust 18 Light Snow 16 100.2 -9 80 -12 -17
19:00 SW 14 Light Snow 13 100.2 -9 83 -12 -18
18:00 WSW 9 Light Snow 24 100.1 -10 82 -13 -17
17:00 WSW 11 Light Snow 24 100.0 -11 82 -13 -19
16:00 WSW 12 Mostly Cloudy 24 99.9 -11 83 -13 -19
15:00 WSW 14 Mostly Cloudy 24 99.9 -11 79 -14 -20
14:00 WSW 12 Mostly Cloudy 24 99.8 -10 77 -14 -19
13:00 SW 12 Partly Cloudy 24 99.8 -11 78 -14 -19
12:00 WSW 9 Partly Cloudy 24 99.8 -11 78 -14 -19
11:00 W 7 Mainly Sunny 24 99.8 -12 77 -15 -19
10:00 NW 6 Mainly Sunny 24 99.8 -13 76 -17 -20
9:00 NW 7 Mainly Sunny 24 99.8 -14 80 -17 -21
8:00 W 8 Mainly Sunny 24 99.7 -14 83 -17 -22

Zoom-in to make a selection

Map of Atlantic - Newfoundland marine weather areas Southwestern Grand Banks - 44138 Banquereau - 44139 Tail of the Bank - 44140 Nickerson Bank - 44251 Northeast Burgeo Bank - 44255 Blanc-Sablon Airport Cap Whittle Chevery Natashquan Airport Heath Point Miscou Island Grand Étang Ingonish Beach North Mountain St.Paul Island J.A. Douglas McCurdy Sydney Airport Charlottetown Airport East Point North Cape Argentia Bonavista Burgeo Cape Race Corner Brook Daniel's Harbour Englee Ferolle Point La Scie Port aux Basques Rocky Harbour Sagona Island St. Anthony Airport St. John's Int'l Airport St. Lawrence Stephenville Airport Twillingate Winterland Wreckhouse Cartwright Airport Mary's Harbour Grates Cove Pool's Island Marticot Island Long Pond Eskasoni (First Nations) Îles de la Madeleine Airport
Legend:
buoy Buoy
land station Land Station

Atlantic - Newfoundland Area

Another Region

What we are doing

Date modified: